Time;durP1;ratioP1;P1;durP2;ratioP2;P2;SDS_P1;SDS_P2;PMS_P1;PMS_P2;Temp;Humidity;BMP_temperature;BMP_pressure;BME280_temperature;BME280_humidity;BME280_pressure;Samples;Min_cycle;Max_cycle;Signal;HPM_P1;HPM_P2
2022/08/27 00:01:15;;;;;;;0.00;0.00;;;13.30;99.90;;;;;;5043099;28;20440;-73
2022/08/27 00:03:43;;;;;;;0.10;0.10;;;13.30;99.90;;;;;;5044383;28;20088;-72
2022/08/27 00:06:12;;;;;;;0.00;0.00;;;13.30;99.90;;;;;;5045110;28;20392;-73
2022/08/27 00:08:39;;;;;;;0.00;0.00;;;13.30;99.90;;;;;;5045993;28;20108;-73
2022/08/27 00:11:05;;;;;;;0.22;0.20;;;13.40;99.90;;;;;;5044344;28;20498;-74
2022/08/27 00:13:30;;;;;;;0.65;0.55;;;13.50;99.90;;;;;;5026943;28;20400;-75
2022/08/27 00:15:56;;;;;;;0.65;0.57;;;13.50;99.90;;;;;;5044442;28;20041;-75
2022/08/27 00:18:22;;;;;;;0.03;0.03;;;13.60;99.90;;;;;;5045128;28;20041;-74
2022/08/27 00:20:47;;;;;;;0.52;0.52;;;13.70;99.90;;;;;;5045953;28;20081;-74
2022/08/27 00:23:13;;;;;;;0.00;0.00;;;13.80;99.90;;;;;;5045513;28;20041;-74
2022/08/27 00:25:39;;;;;;;0.00;0.00;;;14.10;99.90;;;;;;5045464;28;20069;-74
2022/08/27 00:28:05;;;;;;;0.20;0.20;;;13.90;99.90;;;;;;5044331;28;20162;-74
2022/08/27 00:30:30;;;;;;;0.10;0.10;;;13.90;99.90;;;;;;5044884;28;20112;-74
2022/08/27 00:32:56;;;;;;;0.00;0.00;;;14.00;99.90;;;;;;5043689;28;20048;-73
2022/08/27 00:35:22;;;;;;;0.03;0.03;;;14.10;99.90;;;;;;5044995;28;20072;-75
2022/08/27 00:37:47;;;;;;;0.30;0.10;;;14.10;99.90;;;;;;5045007;28;20442;-73
2022/08/27 00:40:19;;;;;;;0.20;0.20;;;14.10;99.90;;;;;;5044640;28;20037;-73
2022/08/27 00:42:44;;;;;;;0.22;0.20;;;14.10;99.90;;;;;;5043151;28;20171;-74
2022/08/27 00:45:12;;;;;;;0.00;0.00;;;14.10;99.90;;;;;;5043872;28;20480;-74
2022/08/27 00:47:44;;;;;;;0.38;0.20;;;15.10;99.90;;;;;;5043380;28;20089;-75
2022/08/27 00:50:14;;;;;;;0.43;0.10;;;14.10;99.90;;;;;;5042803;28;20046;-74
2022/08/27 00:52:56;;;;;;;0.00;0.00;;;14.10;99.90;;;;;;5043167;28;20096;-72
2022/08/27 00:55:25;;;;;;;0.00;0.00;;;14.00;99.90;;;;;;5044858;28;20054;-75
2022/08/27 00:58:15;;;;;;;0.10;0.10;;;13.90;99.90;;;;;;5042578;28;20056;-74
2022/08/27 01:00:41;;;;;;;0.13;0.10;;;13.80;99.90;;;;;;5025556;28;20041;-74
2022/08/27 01:03:07;;;;;;;0.05;0.05;;;13.70;99.90;;;;;;5043530;28;20042;-74
2022/08/27 01:05:34;;;;;;;0.13;0.13;;;13.70;99.90;;;;;;5042351;28;20067;-73
2022/08/27 01:08:06;;;;;;;0.00;0.00;;;13.60;99.90;;;;;;5043136;28;20060;-74
2022/08/27 01:10:32;;;;;;;0.00;0.00;;;13.60;99.90;;;;;;5042794;28;20540;-74
2022/08/27 01:12:59;;;;;;;0.20;0.15;;;13.60;99.90;;;;;;5044071;28;20046;-73
2022/08/27 01:15:26;;;;;;;0.13;0.13;;;13.70;99.90;;;;;;5043466;28;20037;-74
2022/08/27 01:17:53;;;;;;;0.25;0.17;;;13.70;99.90;;;;;;5044151;28;20044;-73
2022/08/27 01:20:28;;;;;;;0.00;0.00;;;13.60;99.90;;;;;;5043838;28;20045;-74
2022/08/27 01:23:12;;;;;;;0.00;0.00;;;14.00;99.90;;;;;;5042804;28;20034;-73
2022/08/27 01:25:41;;;;;;;0.38;0.30;;;13.70;99.90;;;;;;5043006;28;20420;-73
2022/08/27 01:28:07;;;;;;;0.00;0.00;;;13.60;99.90;;;;;;5040659;28;20053;-74
2022/08/27 01:30:33;;;;;;;0.60;0.35;;;13.60;99.90;;;;;;5042759;28;20045;-74
2022/08/27 01:32:59;;;;;;;0.00;0.00;;;13.60;99.90;;;;;;5043136;28;20084;-73
2022/08/27 01:35:25;;;;;;;1.08;0.28;;;13.60;99.90;;;;;;5043075;28;20042;-74
2022/08/27 01:37:53;;;;;;;0.20;0.20;;;13.60;99.90;;;;;;5042684;28;20518;-73
2022/08/27 01:40:19;;;;;;;1.45;0.47;;;13.60;99.90;;;;;;5038822;28;20068;-73
2022/08/27 01:42:51;;;;;;;0.08;0.08;;;13.70;99.90;;;;;;5042159;28;20079;-74
2022/08/27 01:45:25;;;;;;;0.00;0.00;;;13.70;99.90;;;;;;5023785;28;20099;-73
2022/08/27 01:47:51;;;;;;;0.08;0.08;;;13.70;99.90;;;;;;5042365;28;20049;-74
2022/08/27 01:50:23;;;;;;;0.20;0.10;;;13.70;99.90;;;;;;5043729;28;20536;-74
2022/08/27 01:52:49;;;;;;;0.00;0.00;;;13.70;99.90;;;;;;5044379;28;20037;-73
2022/08/27 01:55:19;;;;;;;0.25;0.17;;;13.70;99.90;;;;;;5043199;28;20049;-74
2022/08/27 01:57:45;;;;;;;0.00;0.00;;;13.80;99.90;;;;;;5105270;22;20059;-72
2022/08/27 02:00:18;;;;;;;0.28;0.20;;;13.70;99.90;;;;;;5032356;28;20083;-72
2022/08/27 02:02:44;;;;;;;0.00;0.00;;;13.70;99.90;;;;;;5020983;28;20045;-71
2022/08/27 02:05:11;;;;;;;0.05;0.05;;;13.60;99.90;;;;;;5034689;28;20504;-72
2022/08/27 02:07:38;;;;;;;0.28;0.17;;;13.90;99.90;;;;;;5016475;28;20072;-72
2022/08/27 02:10:08;;;;;;;0.22;0.22;;;13.50;99.90;;;;;;5034141;28;20037;-72
2022/08/27 02:12:34;;;;;;;0.00;0.00;;;13.40;99.90;;;;;;5016444;28;20488;-72
2022/08/27 02:15:00;;;;;;;0.00;0.00;;;13.30;99.90;;;;;;5042053;28;20080;-71
2022/08/27 02:17:26;;;;;;;0.00;0.00;;;13.30;99.90;;;;;;5053733;28;20049;-72
2022/08/27 02:19:52;;;;;;;0.00;0.00;;;13.10;99.90;;;;;;5037014;28;20045;-72
2022/08/27 02:22:17;;;;;;;0.30;0.30;;;13.10;99.90;;;;;;5033741;28;20038;-72
2022/08/27 02:24:43;;;;;;;0.00;0.00;;;13.10;99.90;;;;;;5034368;28;20515;-72
2022/08/27 02:27:10;;;;;;;0.90;0.47;;;13.00;99.90;;;;;;5033867;28;20033;-72
2022/08/27 02:29:35;;;;;;;0.00;0.00;;;12.90;99.90;;;;;;5039898;28;20120;-72
2022/08/27 02:32:01;;;;;;;0.00;0.00;;;12.80;99.90;;;;;;5042523;28;20084;-72
2022/08/27 02:34:27;;;;;;;0.45;0.45;;;12.70;99.90;;;;;;5033397;28;20042;-73
2022/08/27 02:36:53;;;;;;;0.00;0.00;;;12.70;99.90;;;;;;5033682;28;20044;-74
2022/08/27 02:39:20;;;;;;;0.30;0.20;;;12.70;99.90;;;;;;5032122;28;20083;-73
2022/08/27 02:41:48;;;;;;;2.28;0.28;;;12.60;99.90;;;;;;5033902;28;20460;-74
2022/08/27 02:44:15;;;;;;;0.00;0.00;;;12.50;99.90;;;;;;5033666;28;20488;-73
2022/08/27 02:46:41;;;;;;;0.00;0.00;;;12.50;99.90;;;;;;5033796;28;20412;-74
2022/08/27 02:49:08;;;;;;;0.00;0.00;;;12.80;99.90;;;;;;5033911;28;20042;-73
2022/08/27 02:51:34;;;;;;;0.00;0.00;;;12.50;99.90;;;;;;5034193;28;20103;-73
2022/08/27 02:54:01;;;;;;;0.28;0.28;;;12.40;99.90;;;;;;5037112;28;20037;-73
2022/08/27 02:56:26;;;;;;;0.88;0.10;;;12.40;99.90;;;;;;5036932;28;20042;-73
2022/08/27 02:58:53;;;;;;;0.00;0.00;;;12.50;99.90;;;;;;5037059;28;20053;-73
2022/08/27 03:01:18;;;;;;;0.00;0.00;;;12.50;99.90;;;;;;5037123;28;20037;-73
2022/08/27 03:03:44;;;;;;;2.55;0.85;;;12.70;99.90;;;;;;5037300;28;20034;-73
2022/08/27 03:06:10;;;;;;;0.15;0.15;;;12.80;99.90;;;;;;5037339;28;20033;-73
2022/08/27 03:08:36;;;;;;;1.58;0.70;;;12.90;99.90;;;;;;5036974;28;20053;-73
2022/08/27 03:11:02;;;;;;;0.77;0.55;;;13.00;99.90;;;;;;5036769;28;20139;-74
2022/08/27 03:13:28;;;;;;;0.00;0.00;;;13.00;99.90;;;;;;5036690;28;20073;-73
2022/08/27 03:15:53;;;;;;;0.25;0.25;;;13.10;99.90;;;;;;5036760;28;20049;-73
2022/08/27 03:18:20;;;;;;;0.00;0.00;;;13.10;99.90;;;;;;5036552;28;20045;-73
2022/08/27 03:20:52;;;;;;;0.00;0.00;;;13.20;99.90;;;;;;5036525;28;20049;-73
2022/08/27 03:23:23;;;;;;;0.10;0.10;;;13.20;99.90;;;;;;5036230;28;20042;-73
2022/08/27 03:25:53;;;;;;;0.00;0.00;;;13.20;99.90;;;;;;5036348;28;20072;-73
2022/08/27 03:28:20;;;;;;;0.00;0.00;;;13.40;99.90;;;;;;5036390;28;20095;-73
2022/08/27 03:30:51;;;;;;;0.20;0.20;;;13.30;99.90;;;;;;5036431;28;20402;-73
2022/08/27 03:33:18;;;;;;;0.15;0.15;;;13.40;99.90;;;;;;5036659;28;20042;-73
2022/08/27 03:35:46;;;;;;;0.00;0.00;;;13.50;99.90;;;;;;5036463;28;20053;-73
2022/08/27 03:38:11;;;;;;;0.20;0.20;;;13.50;99.90;;;;;;5036363;28;20408;-73
2022/08/27 03:40:37;;;;;;;0.20;0.15;;;13.50;99.90;;;;;;5036242;28;20044;-74
2022/08/27 03:43:03;;;;;;;0.00;0.00;;;13.50;99.90;;;;;;5035853;28;20099;-73
2022/08/27 03:45:29;;;;;;;0.20;0.20;;;13.40;99.90;;;;;;5035677;28;20037;-73
2022/08/27 03:47:54;;;;;;;0.25;0.25;;;13.40;99.90;;;;;;5035969;28;20073;-73
2022/08/27 03:50:20;;;;;;;0.05;0.00;;;13.40;99.90;;;;;;5035756;28;20114;-74
2022/08/27 03:52:46;;;;;;;0.13;0.10;;;13.30;99.90;;;;;;5035571;28;20049;-73
2022/08/27 03:55:13;;;;;;;0.20;0.17;;;13.30;99.90;;;;;;5035627;28;20038;-73
2022/08/27 03:57:39;;;;;;;0.00;0.00;;;13.30;99.90;;;;;;5035409;28;20045;-73
2022/08/27 04:00:14;;;;;;;0.00;0.00;;;13.40;99.90;;;;;;5035795;28;20068;-73
2022/08/27 04:02:41;;;;;;;0.20;0.20;;;13.40;99.90;;;;;;5035379;28;20053;-73
2022/08/27 04:05:10;;;;;;;0.00;0.00;;;13.40;99.90;;;;;;5035850;28;20053;-73
2022/08/27 04:07:36;;;;;;;0.05;0.03;;;13.40;99.90;;;;;;5035581;28;20042;-73
2022/08/27 04:10:02;;;;;;;0.00;0.00;;;13.40;99.90;;;;;;5035682;28;20459;-74
2022/08/27 04:12:27;;;;;;;0.00;0.00;;;13.30;99.90;;;;;;5035698;28;20041;-74
2022/08/27 04:14:53;;;;;;;0.00;0.00;;;13.30;99.90;;;;;;5035917;28;20037;-73
2022/08/27 04:17:18;;;;;;;0.00;0.00;;;13.20;99.90;;;;;;5036426;28;20499;-73
2022/08/27 04:19:44;;;;;;;0.08;0.08;;;13.20;99.90;;;;;;5036406;28;20097;-73
2022/08/27 04:22:10;;;;;;;0.32;0.20;;;13.30;99.90;;;;;;5035722;28;20045;-74
2022/08/27 04:24:36;;;;;;;0.00;0.00;;;13.30;99.90;;;;;;5035629;28;20057;-73
2022/08/27 04:27:03;;;;;;;0.03;0.03;;;13.40;99.90;;;;;;5035755;28;20049;-73
2022/08/27 04:29:30;;;;;;;0.08;0.08;;;13.20;99.90;;;;;;5036213;28;20046;-73
2022/08/27 04:31:56;;;;;;;0.00;0.00;;;14.20;99.90;;;;;;5035609;28;20049;-73
2022/08/27 04:34:22;;;;;;;0.00;0.00;;;13.10;99.90;;;;;;5035836;28;20087;-73
2022/08/27 04:36:49;;;;;;;0.10;0.10;;;13.10;99.90;;;;;;5035647;28;20408;-73
2022/08/27 04:39:15;;;;;;;0.00;0.00;;;12.90;99.90;;;;;;5017946;28;20053;-73
2022/08/27 04:41:40;;;;;;;0.00;0.00;;;12.90;99.90;;;;;;5035229;28;20091;-73
2022/08/27 04:44:08;;;;;;;0.28;0.25;;;12.80;99.90;;;;;;5035728;28;20041;-73
2022/08/27 04:46:37;;;;;;;0.30;0.30;;;12.60;99.90;;;;;;5035025;28;20107;-73
2022/08/27 04:49:06;;;;;;;0.28;0.10;;;12.60;99.90;;;;;;5035127;28;20480;-73
2022/08/27 04:51:32;;;;;;;0.00;0.00;;;12.40;99.90;;;;;;5035520;28;20440;-73
2022/08/27 04:54:00;;;;;;;0.00;0.00;;;12.40;99.90;;;;;;5035578;28;20515;-73
2022/08/27 04:56:26;;;;;;;0.00;0.00;;;12.30;99.90;;;;;;5035604;28;20042;-74
2022/08/27 04:58:52;;;;;;;0.08;0.08;;;12.30;99.90;;;;;;5035122;28;20436;-73
2022/08/27 05:01:21;;;;;;;0.10;0.10;;;12.20;99.90;;;;;;5034964;28;20049;-73
2022/08/27 05:03:47;;;;;;;0.10;0.10;;;12.20;99.90;;;;;;5035361;28;20041;-73
2022/08/27 05:06:12;;;;;;;0.00;0.00;;;12.10;99.90;;;;;;5035661;28;20052;-73
2022/08/27 05:08:39;;;;;;;0.47;0.35;;;12.10;99.90;;;;;;5035413;28;20043;-73
2022/08/27 05:11:11;;;;;;;0.00;0.00;;;12.10;99.90;;;;;;5035146;28;20037;-73
2022/08/27 05:13:36;;;;;;;0.10;0.10;;;12.00;99.90;;;;;;5017704;28;20049;-73
2022/08/27 05:16:08;;;;;;;0.00;0.00;;;12.20;99.90;;;;;;5034628;28;20096;-73
2022/08/27 05:18:34;;;;;;;0.15;0.15;;;12.10;99.90;;;;;;5035565;28;20041;-73
2022/08/27 05:21:00;;;;;;;0.00;0.00;;;12.10;99.90;;;;;;5035053;28;20033;-72
2022/08/27 05:23:28;;;;;;;0.00;0.00;;;12.10;99.90;;;;;;5034890;28;20049;-73
2022/08/27 05:25:55;;;;;;;0.47;0.43;;;12.20;99.90;;;;;;5035162;28;20033;-73
2022/08/27 05:28:22;;;;;;;0.88;0.82;;;12.20;99.90;;;;;;5035049;28;20409;-73
2022/08/27 05:30:51;;;;;;;0.20;0.20;;;12.30;99.90;;;;;;5034916;28;20049;-73
2022/08/27 05:33:21;;;;;;;0.30;0.10;;;12.50;99.90;;;;;;5034852;28;20504;-73
2022/08/27 05:35:52;;;;;;;0.00;0.00;;;12.50;99.90;;;;;;5017529;28;20053;-73
2022/08/27 05:38:19;;;;;;;0.00;0.00;;;12.70;99.90;;;;;;5034778;28;20045;-73
2022/08/27 05:40:46;;;;;;;0.00;0.00;;;13.10;99.90;;;;;;5034784;28;20052;-73
2022/08/27 05:43:13;;;;;;;4.28;0.80;;;13.30;99.90;;;;;;5034782;28;20103;-73
2022/08/27 05:45:43;;;;;;;0.00;0.00;;;13.70;99.90;;;;;;5034963;28;20048;-73
2022/08/27 05:48:12;;;;;;;0.00;0.00;;;14.00;99.90;;;;;;5035007;28;20045;-73
2022/08/27 05:50:38;;;;;;;0.75;0.45;;;14.30;99.90;;;;;;5035125;28;20128;-74
2022/08/27 05:53:04;;;;;;;2.60;0.15;;;14.60;99.90;;;;;;5017300;28;20224;-74
2022/08/27 05:55:36;;;;;;;0.00;0.00;;;14.90;99.90;;;;;;5034614;28;20412;-73
2022/08/27 05:58:01;;;;;;;0.25;0.20;;;15.20;99.90;;;;;;5034528;28;20058;-73
2022/08/27 06:03:11;;;;;;;0.20;0.20;;;15.70;99.90;;;;;;5034514;28;20144;-74
2022/08/27 06:05:37;;;;;;;0.10;0.10;;;15.90;99.90;;;;;;5034602;28;20057;-73
2022/08/27 06:08:03;;;;;;;0.22;0.22;;;16.20;99.90;;;;;;5034625;28;20373;-73
2022/08/27 06:10:28;;;;;;;0.05;0.05;;;16.50;99.90;;;;;;5034534;28;20091;-74
2022/08/27 06:12:54;;;;;;;0.70;0.43;;;16.80;99.90;;;;;;5034336;28;20045;-73
2022/08/27 06:15:20;;;;;;;0.00;0.00;;;17.00;99.90;;;;;;5034841;28;20071;-73
2022/08/27 06:17:45;;;;;;;1.00;0.43;;;17.70;99.90;;;;;;5034560;28;20042;-74
2022/08/27 06:20:11;;;;;;;1.00;0.38;;;18.80;99.90;;;;;;5034847;28;20045;-73
2022/08/27 06:22:36;;;;;;;0.00;0.00;;;19.70;99.90;;;;;;5034137;28;20042;-74
2022/08/27 06:25:03;;;;;;;0.35;0.00;;;20.40;99.90;;;;;;5034131;28;20041;-74
2022/08/27 06:27:29;;;;;;;0.10;0.10;;;20.80;99.90;;;;;;5036731;28;20049;-74
2022/08/27 06:29:54;;;;;;;0.20;0.17;;;21.00;99.90;;;;;;5038065;28;20415;-73
2022/08/27 06:32:20;;;;;;;0.13;0.13;;;22.00;99.90;;;;;;5038402;28;20049;-74
2022/08/27 06:34:46;;;;;;;0.00;0.00;;;22.00;99.90;;;;;;5038664;28;20053;-74
2022/08/27 06:37:12;;;;;;;0.57;0.32;;;22.40;99.90;;;;;;5038334;28;20045;-74
2022/08/27 06:39:38;;;;;;;0.52;0.40;;;22.20;99.90;;;;;;5038204;28;20037;-74
2022/08/27 06:42:05;;;;;;;1.27;0.50;;;22.00;99.90;;;;;;5038430;28;20046;-74
2022/08/27 06:44:31;;;;;;;0.00;0.00;;;21.70;99.90;;;;;;5038329;28;20466;-74
2022/08/27 06:46:57;;;;;;;1.17;0.38;;;21.20;99.90;;;;;;5037595;28;20056;-74
2022/08/27 06:49:23;;;;;;;0.00;0.00;;;20.70;99.90;;;;;;5038901;28;20092;-74
2022/08/27 06:51:49;;;;;;;0.15;0.10;;;20.00;99.90;;;;;;5038230;28;20046;-73
2022/08/27 06:54:15;;;;;;;0.47;0.40;;;19.60;99.90;;;;;;5037511;28;20088;-73
2022/08/27 06:56:42;;;;;;;0.10;0.10;;;19.40;99.90;;;;;;5037363;28;20081;-74
2022/08/27 06:59:10;;;;;;;0.00;0.00;;;19.10;99.90;;;;;;5038325;28;20046;-73
2022/08/27 07:01:38;;;;;;;0.28;0.22;;;19.10;99.90;;;;;;5039390;28;20076;-74
2022/08/27 07:04:06;;;;;;;0.28;0.10;;;19.00;99.90;;;;;;5038833;28;20140;-74
2022/08/27 07:06:34;;;;;;;0.00;0.00;;;19.00;99.90;;;;;;5039141;28;20057;-74
2022/08/27 07:09:00;;;;;;;0.40;0.30;;;19.00;99.90;;;;;;5040365;28;20073;-74
2022/08/27 07:11:27;;;;;;;1.23;0.30;;;19.00;99.90;;;;;;5039586;28;20053;-74
2022/08/27 07:13:53;;;;;;;0.73;0.38;;;19.10;99.90;;;;;;5041979;28;20449;-74
2022/08/27 07:16:21;;;;;;;6.30;0.75;;;19.20;99.90;;;;;;5056917;28;20048;-74
2022/08/27 07:18:53;;;;;;;0.00;0.00;;;19.40;99.90;;;;;;5055950;28;20050;-75
2022/08/27 07:21:19;;;;;;;0.10;0.10;;;19.70;99.90;;;;;;5056738;28;20048;-74
2022/08/27 07:23:46;;;;;;;0.00;0.00;;;19.70;99.90;;;;;;5057158;28;20076;-74
2022/08/27 07:26:13;;;;;;;0.00;0.00;;;20.20;99.90;;;;;;5057324;28;20086;-74
2022/08/27 07:28:40;;;;;;;0.22;0.15;;;20.30;99.90;;;;;;5056102;28;20060;-75
2022/08/27 07:31:09;;;;;;;0.30;0.20;;;20.40;99.90;;;;;;5055320;28;20132;-74
2022/08/27 07:33:36;;;;;;;0.00;0.00;;;20.30;99.90;;;;;;5056021;28;20053;-74
2022/08/27 07:36:03;;;;;;;0.00;0.00;;;20.70;99.90;;;;;;5056375;28;20060;-74
2022/08/27 07:38:29;;;;;;;3.50;0.73;;;21.00;99.90;;;;;;5055093;28;20048;-75
2022/08/27 07:40:54;;;;;;;0.30;0.30;;;21.20;99.90;;;;;;5055066;28;20396;-74
2022/08/27 07:46:04;;;;;;;0.00;0.00;;;21.20;99.90;;;;;;5054599;28;20128;-75
2022/08/27 07:48:33;;;;;;;0.08;0.08;;;21.00;99.90;;;;;;5053573;28;20527;-75
2022/08/27 07:51:03;;;;;;;0.17;0.15;;;21.00;99.90;;;;;;5053309;28;20049;-74
2022/08/27 07:53:30;;;;;;;0.00;0.00;;;20.70;99.90;;;;;;5054208;28;20049;-74
2022/08/27 07:56:05;;;;;;;2.20;0.60;;;20.60;99.90;;;;;;5053462;28;20076;-75
2022/08/27 07:58:31;;;;;;;0.00;0.00;;;20.60;99.90;;;;;;5052683;28;20582;-75
2022/08/27 08:00:57;;;;;;;0.40;0.15;;;20.50;99.90;;;;;;5052624;28;20462;-75
2022/08/27 08:03:23;;;;;;;1.65;0.15;;;20.40;99.90;;;;;;5052964;28;20045;-75
2022/08/27 08:05:51;;;;;;;0.00;0.00;;;20.50;99.90;;;;;;5052679;28;20044;-75
2022/08/27 08:08:18;;;;;;;1.15;0.43;;;20.30;99.90;;;;;;5052820;28;20552;-74
2022/08/27 08:10:44;;;;;;;0.13;0.13;;;20.10;99.90;;;;;;5034741;28;20049;-75
2022/08/27 08:13:11;;;;;;;0.38;0.20;;;19.70;99.90;;;;;;5050954;28;20071;-73
2022/08/27 08:15:37;;;;;;;0.00;0.00;;;19.50;99.90;;;;;;5051094;28;20057;-74
2022/08/27 08:18:03;;;;;;;0.00;0.00;;;19.50;99.90;;;;;;5050971;28;20040;-75
2022/08/27 08:20:29;;;;;;;0.00;0.00;;;20.60;99.90;;;;;;5051001;28;20407;-74
2022/08/27 08:22:55;;;;;;;0.22;0.13;;;21.80;99.90;;;;;;5050843;28;20055;-75
2022/08/27 08:25:21;;;;;;;0.47;0.30;;;23.10;89.40;;;;;;5051574;28;20033;-75
2022/08/27 08:27:47;;;;;;;0.00;0.00;;;23.80;81.30;;;;;;5050366;28;20049;-75
2022/08/27 08:30:13;;;;;;;0.10;0.10;;;24.80;63.30;;;;;;5050540;28;20052;-74
2022/08/27 08:32:42;;;;;;;0.13;0.10;;;24.20;56.10;;;;;;5050719;28;20053;-75
2022/08/27 08:35:08;;;;;;;0.00;0.00;;;24.00;62.10;;;;;;5050946;28;20058;-76
2022/08/27 08:37:34;;;;;;;0.43;0.43;;;24.50;55.10;;;;;;5050470;28;20062;-75
2022/08/27 08:40:00;;;;;;;0.10;0.10;;;24.10;52.10;;;;;;5050440;28;20045;-76
2022/08/27 08:42:35;;;;;;;0.00;0.00;;;23.30;64.50;;;;;;5050505;28;20446;-76
2022/08/27 08:45:05;;;;;;;0.20;0.10;;;23.20;72.70;;;;;;5050596;28;20268;-75
2022/08/27 08:47:42;;;;;;;1.92;0.57;;;23.30;80.40;;;;;;5050300;28;20102;-76
2022/08/27 08:50:19;;;;;;;0.17;0.17;;;23.30;77.40;;;;;;5049510;28;20059;-75
2022/08/27 08:53:01;;;;;;;0.22;0.22;;;22.50;87.20;;;;;;5050096;28;20144;-75
2022/08/27 08:55:45;;;;;;;0.00;0.00;;;22.10;92.30;;;;;;5050517;28;20037;-74
2022/08/27 08:58:15;;;;;;;0.00;0.00;;;22.00;94.00;;;;;;5050351;28;20061;-75
2022/08/27 09:00:43;;;;;;;0.00;0.00;;;21.90;93.90;;;;;;5050079;28;20122;-74
2022/08/27 09:03:12;;;;;;;0.70;0.40;;;21.80;94.40;;;;;;5032058;28;20049;-75
2022/08/27 09:05:42;;;;;;;0.52;0.40;;;22.10;93.80;;;;;;5050070;28;20083;-76
2022/08/27 09:08:24;;;;;;;0.10;0.10;;;22.30;87.50;;;;;;5033048;28;20171;-76
2022/08/27 09:11:01;;;;;;;0.00;0.00;;;22.20;91.50;;;;;;5051522;28;20396;-75
2022/08/27 09:13:52;;;;;;;3.72;0.63;;;22.40;91.50;;;;;;5051284;28;20073;-75
2022/08/27 09:16:18;;;;;;;0.40;0.20;;;22.70;87.40;;;;;;5052551;28;20474;-76
2022/08/27 09:18:44;;;;;;;0.47;0.20;;;22.60;83.00;;;;;;5052677;28;20073;-75
2022/08/27 09:21:20;;;;;;;0.10;0.10;;;22.70;77.20;;;;;;5053628;28;20076;-74
2022/08/27 09:23:48;;;;;;;;;;;22.60;76.70;;;;;;5050803;28;20041;-75
2022/08/27 09:26:26;;;;;;;6.50;0.50;;;22.80;82.70;;;;;;5052110;28;20379;-75
2022/08/27 09:29:15;;;;;;;0.13;0.10;;;22.90;79.90;;;;;;5052607;28;20083;-75
2022/08/27 09:31:42;;;;;;;1.80;0.15;;;23.80;67.60;;;;;;5032718;28;20059;-75
2022/08/27 09:34:08;;;;;;;0.10;0.10;;;23.90;51.50;;;;;;5051023;28;20094;-75
2022/08/27 09:36:34;;;;;;;2.10;0.70;;;23.80;50.70;;;;;;5050876;28;20033;-77
2022/08/27 09:39:05;;;;;;;1.10;0.93;;;23.50;38.70;;;;;;5049496;28;20087;-76
2022/08/27 09:41:37;;;;;;;1.73;0.65;;;23.00;45.90;;;;;;5049694;28;20091;-76
2022/08/27 09:44:16;;;;;;;0.20;0.20;;;22.90;54.40;;;;;;5049441;28;20045;-76
2022/08/27 09:46:52;;;;;;;0.80;0.55;;;23.30;55.30;;;;;;5049311;28;20124;-75
2022/08/27 09:49:18;;;;;;;0.75;0.35;;;23.20;60.20;;;;;;5049731;28;20163;-75
2022/08/27 09:51:46;;;;;;;0.65;0.25;;;23.50;63.40;;;;;;5031850;28;20422;-76
2022/08/27 09:54:26;;;;;;;0.00;0.00;;;23.50;58.60;;;;;;5049514;28;20388;-75
2022/08/27 09:56:51;;;;;;;0.03;0.03;;;23.00;58.40;;;;;;5048486;28;20060;-75
2022/08/27 09:59:23;;;;;;;5.28;0.90;;;22.50;68.10;;;;;;5051190;28;20041;-75
2022/08/27 10:01:55;;;;;;;0.15;0.15;;;22.30;71.90;;;;;;5055304;28;20502;-75
2022/08/27 10:04:36;;;;;;;0.00;0.00;;;22.20;76.80;;;;;;5057612;28;20045;-74
2022/08/27 10:07:16;;;;;;;0.00;0.00;;;22.20;80.90;;;;;;5057723;28;20048;-75
2022/08/27 10:09:59;;;;;;;1.08;0.50;;;22.10;85.90;;;;;;5056493;28;20057;-75
2022/08/27 10:12:43;;;;;;;0.10;0.08;;;22.10;90.50;;;;;;5056956;28;20424;-75
2022/08/27 10:15:13;;;;;;;0.10;0.10;;;21.80;82.60;;;;;;5056550;28;20060;-75
2022/08/27 10:18:14;;;;;;;0.00;0.00;;;22.20;78.30;;;;;;5056518;28;20092;-75
2022/08/27 10:21:05;;;;;;;0.13;0.13;;;22.20;78.00;;;;;;5055795;28;20106;-75
2022/08/27 10:23:55;;;;;;;0.25;0.25;;;22.10;75.80;;;;;;5056316;28;20048;-74
2022/08/27 10:26:32;;;;;;;0.10;0.10;;;22.30;76.10;;;;;;5056376;28;20041;-73
2022/08/27 10:29:16;;;;;;;0.77;0.32;;;22.60;75.30;;;;;;5056200;28;20071;-75
2022/08/27 10:32:28;;;;;;;0.63;0.35;;;22.90;72.90;;;;;;5056260;28;20432;-74
2022/08/27 10:35:14;;;;;;;7.10;1.50;;;22.60;63.10;;;;;;5055967;28;20049;-75
2022/08/27 10:38:16;;;;;;;12.65;2.65;;;23.10;65.40;;;;;;5056209;28;20053;-75
2022/08/27 10:40:56;;;;;;;0.82;0.52;;;23.50;55.60;;;;;;5056054;28;20041;-75
2022/08/27 10:43:33;;;;;;;0.00;0.00;;;23.40;43.30;;;;;;5056289;28;20045;-74
2022/08/27 10:46:36;;;;;;;5.05;1.08;;;23.00;57.60;;;;;;5055761;28;20436;-75
2022/08/27 10:49:18;;;;;;;0.55;0.20;;;22.80;60.20;;;;;;5055776;28;20041;-75
2022/08/27 10:52:07;;;;;;;0.10;0.10;;;22.60;69.90;;;;;;5055573;28;20056;-74
2022/08/27 10:54:41;;;;;;;0.00;0.00;;;22.10;73.10;;;;;;5055380;28;20407;-75
2022/08/27 10:57:25;;;;;;;0.98;0.45;;;22.30;81.10;;;;;;5054937;28;20518;-74
2022/08/27 11:00:18;;;;;;;0.10;0.10;;;22.60;72.20;;;;;;5055515;28;20049;-75
2022/08/27 11:02:50;;;;;;;0.45;0.25;;;23.10;71.90;;;;;;5052032;28;20059;-75
2022/08/27 11:05:27;;;;;;;0.35;0.30;;;23.20;65.90;;;;;;5055383;28;20037;-74
2022/08/27 11:08:04;;;;;;;0.80;0.43;;;23.20;51.00;;;;;;5055167;28;20045;-76
2022/08/27 11:10:38;;;;;;;0.43;0.40;;;23.10;49.30;;;;;;5054902;28;20044;-75
2022/08/27 11:13:17;;;;;;;0.00;0.00;;;23.00;57.50;;;;;;5054608;28;20048;-75
2022/08/27 11:15:47;;;;;;;0.00;0.00;;;22.90;54.60;;;;;;5055385;28;20063;-75
2022/08/27 11:18:19;;;;;;;0.30;0.30;;;23.10;45.30;;;;;;5055294;28;20052;-74
2022/08/27 11:20:58;;;;;;;0.00;0.00;;;22.50;56.50;;;;;;5054918;28;20045;-75
2022/08/27 11:23:44;;;;;;;1.80;0.38;;;22.40;58.70;;;;;;5037026;28;20076;-75
2022/08/27 11:26:11;;;;;;;0.10;0.05;;;22.70;58.70;;;;;;5055206;28;20037;-75
2022/08/27 11:28:40;;;;;;;0.90;0.15;;;22.70;57.20;;;;;;5055097;28;20407;-74
2022/08/27 11:31:22;;;;;;;2.85;0.43;;;22.80;59.00;;;;;;5054743;28;20081;-75
2022/08/27 11:34:23;;;;;;;0.28;0.28;;;22.70;67.90;;;;;;5054922;28;20124;-75
2022/08/27 11:37:27;;;;;;;9.00;0.80;;;22.20;66.60;;;;;;5054761;28;20299;-74
2022/08/27 11:40:39;;;;;;;0.38;0.38;;;22.30;74.30;;;;;;5054875;28;20060;-74
2022/08/27 11:43:11;;;;;;;0.20;0.20;;;22.40;78.90;;;;;;4973781;28;20449;-74
2022/08/27 11:45:51;;;;;;;0.00;0.00;;;22.50;83.70;;;;;;5042358;28;20408;-74
2022/08/27 11:48:22;;;;;;;0.00;0.00;;;22.30;77.30;;;;;;5037695;28;20388;-75
2022/08/27 11:50:55;;;;;;;18.10;1.10;;;22.30;69.30;;;;;;5055524;28;20036;-75
2022/08/27 11:53:39;;;;;;;3.45;0.95;;;22.60;61.10;;;;;;5055371;28;20494;-75
2022/08/27 11:56:38;;;;;;;0.00;0.00;;;22.60;61.10;;;;;;5055455;28;20045;-74
2022/08/27 11:59:23;;;;;;;0.75;0.30;;;22.40;63.90;;;;;;5055287;28;20094;-75
2022/08/27 12:01:55;;;;;;;0.75;0.55;;;22.50;55.20;;;;;;5055021;28;20041;-74
2022/08/27 12:04:30;;;;;;;0.38;0.20;;;22.50;52.80;;;;;;5055071;28;20115;-74
2022/08/27 12:07:13;;;;;;;0.10;0.10;;;23.50;52.50;;;;;;5054797;28;20087;-74
2022/08/27 12:09:59;;;;;;;1.15;0.68;;;24.70;35.80;;;;;;5055495;28;20045;-75
2022/08/27 12:12:59;;;;;;;0.00;0.00;;;26.20;23.00;;;;;;5054790;28;20041;-75
2022/08/27 12:15:43;;;;;;;1.27;0.20;;;26.90;13.00;;;;;;5054873;28;20052;-74
2022/08/27 12:18:23;;;;;;;0.17;0.10;;;26.40;4.20;;;;;;5055022;28;20084;-75
2022/08/27 12:21:14;;;;;;;5.25;1.02;;;25.00;10.80;;;;;;5055342;28;20045;-75
2022/08/27 12:24:01;;;;;;;0.15;0.10;;;24.30;20.80;;;;;;5054585;28;20114;-76
2022/08/27 12:26:36;;;;;;;1.00;0.55;;;24.00;19.90;;;;;;5054758;28;20043;-75
2022/08/27 12:29:32;;;;;;;0.38;0.38;;;24.80;19.20;;;;;;5054470;28;20049;-75
2022/08/27 12:32:25;;;;;;;0.00;0.00;;;25.70;13.90;;;;;;5054228;28;20120;-75
2022/08/27 12:35:12;;;;;;;0.03;0.03;;;27.10;11.60;;;;;;5054271;28;20049;-75
2022/08/27 12:37:52;;;;;;;0.00;0.00;;;27.20;6.30;;;;;;5054213;28;20076;-75
2022/08/27 12:40:28;;;;;;;0.70;0.52;;;25.90;7.50;;;;;;5054228;28;20051;-75
2022/08/27 12:43:27;;;;;;;0.20;0.17;;;24.60;12.80;;;;;;5054452;28;20048;-74
2022/08/27 12:46:00;;;;;;;0.77;0.40;;;24.70;20.60;;;;;;5010696;28;20053;-74
2022/08/27 12:48:29;;;;;;;0.63;0.25;;;24.50;17.60;;;;;;5054060;28;20094;-75
2022/08/27 12:50:59;;;;;;;0.13;0.13;;;25.50;15.70;;;;;;5054638;28;20121;-75
2022/08/27 12:53:43;;;;;;;0.40;0.40;;;25.80;6.70;;;;;;5054050;28;20052;-74
2022/08/27 12:56:22;;;;;;;5.85;1.27;;;25.90;4.20;;;;;;5053765;28;20102;-75
2022/08/27 12:59:04;;;;;;;0.05;0.00;;;25.10;5.00;;;;;;5054277;28;20490;-75
2022/08/27 13:01:58;;;;;;;5.57;0.70;;;24.30;8.80;;;;;;5054041;28;20048;-75
2022/08/27 13:04:27;;;;;;;0.38;0.20;;;24.30;11.70;;;;;;5053588;28;20487;-76
2022/08/27 13:06:53;;;;;;;0.00;0.00;;;24.60;15.90;;;;;;5053415;28;20044;-75
2022/08/27 13:09:29;;;;;;;2.08;1.08;;;24.80;12.00;;;;;;5053228;28;20526;-75
2022/08/27 13:11:56;;;;;;;1.25;0.57;;;24.40;12.90;;;;;;5053271;28;20072;-75
2022/08/27 13:14:23;;;;;;;0.20;0.10;;;24.10;18.60;;;;;;5053021;28;20411;-75